Charlestown, Maryland
Current Conditions -  °F | °C
As of 8:51 PM on Saturday 25 Oct 2014 (Local Time) from KILG Reporting Station
Clear Clear  
Wind Chill: 60°   Ceiling: Unl
Heat Index: 60°   Visibility: 10mi
Dew Point: 45°   Wind: 8mph
Humidity: 57%   Direction: 230°SW
Pressure: 29.7"   Gusts: NA
Location:  39.57°N, 75.97°W
Report Text: KILG 260051Z 23007KT 10SM CLR 16/07 A2970 RMK AO2 SLP056 T01560072
Loading
Personal Weather Stations






























Interactive Weather Map
Tropical Storm Tracking
New forecast layout! Learn more

10-Day Weather Forecast

Advertisements
Track Severe Weather on mobile